sensor_id;sensor_type;location;lat;lon;timestamp;P1;durP1;ratioP1;P2;durP2;ratioP2
55537;SDS011;41383;51.418;7.286;2023-07-02T00:02:02;5.07;;;2.80;;
55537;SDS011;41383;51.418;7.286;2023-07-02T00:04:27;7.13;;;2.97;;
55537;SDS011;41383;51.418;7.286;2023-07-02T00:06:52;5.37;;;2.97;;
55537;SDS011;41383;51.418;7.286;2023-07-02T00:09:18;8.55;;;2.97;;
55537;SDS011;41383;51.418;7.286;2023-07-02T00:11:43;7.85;;;2.78;;
55537;SDS011;41383;51.418;7.286;2023-07-02T00:14:11;6.03;;;3.17;;
55537;SDS011;41383;51.418;7.286;2023-07-02T00:16:37;4.88;;;2.30;;
55537;SDS011;41383;51.418;7.286;2023-07-02T00:19:04;7.40;;;2.60;;
55537;SDS011;41383;51.418;7.286;2023-07-02T00:21:29;10.15;;;3.78;;
55537;SDS011;41383;51.418;7.286;2023-07-02T00:23:58;7.47;;;2.72;;
55537;SDS011;41383;51.418;7.286;2023-07-02T00:26:24;9.30;;;3.08;;
55537;SDS011;41383;51.418;7.286;2023-07-02T00:28:50;4.75;;;2.28;;
55537;SDS011;41383;51.418;7.286;2023-07-02T00:31:16;9.07;;;3.78;;
55537;SDS011;41383;51.418;7.286;2023-07-02T00:33:41;7.68;;;6.18;;
55537;SDS011;41383;51.418;7.286;2023-07-02T00:36:06;5.10;;;2.80;;
55537;SDS011;41383;51.418;7.286;2023-07-02T00:38:32;5.75;;;3.25;;
55537;SDS011;41383;51.418;7.286;2023-07-02T00:40:57;7.07;;;3.53;;
55537;SDS011;41383;51.418;7.286;2023-07-02T00:43:22;4.95;;;2.63;;
55537;SDS011;41383;51.418;7.286;2023-07-02T00:45:47;6.75;;;3.15;;
55537;SDS011;41383;51.418;7.286;2023-07-02T00:48:13;6.72;;;3.63;;
55537;SDS011;41383;51.418;7.286;2023-07-02T00:50:38;6.43;;;3.53;;
55537;SDS011;41383;51.418;7.286;2023-07-02T00:53:04;7.57;;;3.03;;
55537;SDS011;41383;51.418;7.286;2023-07-02T00:55:29;6.63;;;3.07;;
55537;SDS011;41383;51.418;7.286;2023-07-02T00:57:54;7.18;;;3.63;;
55537;SDS011;41383;51.418;7.286;2023-07-02T01:00:21;13.43;;;3.60;;
55537;SDS011;41383;51.418;7.286;2023-07-02T01:02:53;8.60;;;3.42;;
55537;SDS011;41383;51.418;7.286;2023-07-02T01:05:23;7.47;;;3.85;;
55537;SDS011;41383;51.418;7.286;2023-07-02T01:07:49;8.63;;;2.78;;
55537;SDS011;41383;51.418;7.286;2023-07-02T01:10:14;5.97;;;3.20;;
55537;SDS011;41383;51.418;7.286;2023-07-02T01:12:40;7.63;;;3.95;;
55537;SDS011;41383;51.418;7.286;2023-07-02T01:15:06;6.25;;;3.78;;
55537;SDS011;41383;51.418;7.286;2023-07-02T01:17:32;12.82;;;4.57;;
55537;SDS011;41383;51.418;7.286;2023-07-02T01:20:06;8.32;;;3.38;;
55537;SDS011;41383;51.418;7.286;2023-07-02T01:22:33;13.00;;;3.90;;
55537;SDS011;41383;51.418;7.286;2023-07-02T01:24:59;8.60;;;3.38;;
55537;SDS011;41383;51.418;7.286;2023-07-02T01:27:27;13.35;;;3.92;;
55537;SDS011;41383;51.418;7.286;2023-07-02T01:29:53;10.38;;;4.07;;
55537;SDS011;41383;51.418;7.286;2023-07-02T01:32:19;9.10;;;3.47;;
55537;SDS011;41383;51.418;7.286;2023-07-02T01:34:45;6.68;;;3.30;;
55537;SDS011;41383;51.418;7.286;2023-07-02T01:37:14;6.28;;;3.40;;
55537;SDS011;41383;51.418;7.286;2023-07-02T01:39:40;13.30;;;3.35;;
55537;SDS011;41383;51.418;7.286;2023-07-02T01:42:09;8.63;;;4.13;;
55537;SDS011;41383;51.418;7.286;2023-07-02T01:44:35;14.00;;;3.78;;
55537;SDS011;41383;51.418;7.286;2023-07-02T01:47:01;11.02;;;4.05;;
55537;SDS011;41383;51.418;7.286;2023-07-02T01:49:27;8.32;;;3.80;;
55537;SDS011;41383;51.418;7.286;2023-07-02T01:51:53;7.37;;;3.63;;
55537;SDS011;41383;51.418;7.286;2023-07-02T01:54:20;8.95;;;3.78;;
55537;SDS011;41383;51.418;7.286;2023-07-02T01:56:46;8.45;;;4.25;;
55537;SDS011;41383;51.418;7.286;2023-07-02T01:59:12;24.73;;;4.30;;
55537;SDS011;41383;51.418;7.286;2023-07-02T02:01:38;11.10;;;5.38;;
55537;SDS011;41383;51.418;7.286;2023-07-02T02:04:07;9.88;;;3.65;;
55537;SDS011;41383;51.418;7.286;2023-07-02T02:06:32;7.22;;;3.40;;
55537;SDS011;41383;51.418;7.286;2023-07-02T02:08:58;9.05;;;4.35;;
55537;SDS011;41383;51.418;7.286;2023-07-02T02:11:24;13.73;;;3.90;;
55537;SDS011;41383;51.418;7.286;2023-07-02T02:13:49;14.27;;;4.40;;
55537;SDS011;41383;51.418;7.286;2023-07-02T02:16:15;21.70;;;4.90;;
55537;SDS011;41383;51.418;7.286;2023-07-02T02:18:40;12.73;;;6.07;;
55537;SDS011;41383;51.418;7.286;2023-07-02T02:21:06;10.05;;;4.38;;
55537;SDS011;41383;51.418;7.286;2023-07-02T02:23:31;13.45;;;5.35;;
55537;SDS011;41383;51.418;7.286;2023-07-02T02:25:56;14.53;;;5.17;;
55537;SDS011;41383;51.418;7.286;2023-07-02T02:28:22;13.70;;;4.80;;
55537;SDS011;41383;51.418;7.286;2023-07-02T02:30:47;10.68;;;4.93;;
55537;SDS011;41383;51.418;7.286;2023-07-02T02:33:12;11.27;;;5.20;;
55537;SDS011;41383;51.418;7.286;2023-07-02T02:35:37;8.80;;;4.00;;
55537;SDS011;41383;51.418;7.286;2023-07-02T02:38:03;12.93;;;6.43;;
55537;SDS011;41383;51.418;7.286;2023-07-02T02:40:32;13.43;;;5.65;;
55537;SDS011;41383;51.418;7.286;2023-07-02T02:42:57;15.80;;;5.43;;
55537;SDS011;41383;51.418;7.286;2023-07-02T02:45:22;13.25;;;5.68;;
55537;SDS011;41383;51.418;7.286;2023-07-02T02:47:47;13.57;;;5.97;;
55537;SDS011;41383;51.418;7.286;2023-07-02T02:50:13;12.23;;;5.10;;
55537;SDS011;41383;51.418;7.286;2023-07-02T02:52:38;14.52;;;6.40;;
55537;SDS011;41383;51.418;7.286;2023-07-02T02:55:05;24.17;;;7.18;;
55537;SDS011;41383;51.418;7.286;2023-07-02T02:57:31;16.83;;;6.72;;
55537;SDS011;41383;51.418;7.286;2023-07-02T02:59:57;11.50;;;6.50;;
55537;SDS011;41383;51.418;7.286;2023-07-02T03:02:23;12.93;;;6.25;;
55537;SDS011;41383;51.418;7.286;2023-07-02T03:04:48;21.70;;;6.85;;
55537;SDS011;41383;51.418;7.286;2023-07-02T03:07:14;21.77;;;6.28;;
55537;SDS011;41383;51.418;7.286;2023-07-02T03:09:40;20.95;;;6.85;;
55537;SDS011;41383;51.418;7.286;2023-07-02T03:12:05;19.43;;;6.37;;
55537;SDS011;41383;51.418;7.286;2023-07-02T03:14:31;17.08;;;7.32;;
55537;SDS011;41383;51.418;7.286;2023-07-02T03:16:56;19.77;;;7.88;;
55537;SDS011;41383;51.418;7.286;2023-07-02T03:19:21;34.53;;;7.83;;
55537;SDS011;41383;51.418;7.286;2023-07-02T03:21:46;14.48;;;7.45;;
55537;SDS011;41383;51.418;7.286;2023-07-02T03:24:12;20.57;;;9.53;;
55537;SDS011;41383;51.418;7.286;2023-07-02T03:26:38;20.90;;;9.07;;
55537;SDS011;41383;51.418;7.286;2023-07-02T03:29:04;16.65;;;7.50;;
55537;SDS011;41383;51.418;7.286;2023-07-02T03:31:30;18.35;;;7.47;;
55537;SDS011;41383;51.418;7.286;2023-07-02T03:33:56;19.65;;;9.13;;
55537;SDS011;41383;51.418;7.286;2023-07-02T03:36:21;23.17;;;9.37;;
55537;SDS011;41383;51.418;7.286;2023-07-02T03:38:46;22.63;;;9.45;;
55537;SDS011;41383;51.418;7.286;2023-07-02T03:41:11;24.08;;;8.93;;
55537;SDS011;41383;51.418;7.286;2023-07-02T03:43:37;28.60;;;11.45;;
55537;SDS011;41383;51.418;7.286;2023-07-02T03:46:02;18.73;;;8.20;;
55537;SDS011;41383;51.418;7.286;2023-07-02T03:48:27;15.33;;;8.73;;
55537;SDS011;41383;51.418;7.286;2023-07-02T03:50:52;19.60;;;9.60;;
55537;SDS011;41383;51.418;7.286;2023-07-02T03:53:18;19.87;;;9.43;;
55537;SDS011;41383;51.418;7.286;2023-07-02T03:55:43;16.50;;;7.50;;
55537;SDS011;41383;51.418;7.286;2023-07-02T03:58:08;19.23;;;9.60;;
55537;SDS011;41383;51.418;7.286;2023-07-02T04:00:33;19.20;;;9.93;;
55537;SDS011;41383;51.418;7.286;2023-07-02T04:02:59;19.73;;;8.68;;
55537;SDS011;41383;51.418;7.286;2023-07-02T04:05:24;21.38;;;8.43;;
55537;SDS011;41383;51.418;7.286;2023-07-02T04:07:49;47.27;;;12.07;;
55537;SDS011;41383;51.418;7.286;2023-07-02T04:10:14;22.63;;;10.30;;
55537;SDS011;41383;51.418;7.286;2023-07-02T04:12:40;21.42;;;9.55;;
55537;SDS011;41383;51.418;7.286;2023-07-02T04:15:05;22.03;;;9.53;;
55537;SDS011;41383;51.418;7.286;2023-07-02T04:17:31;19.70;;;10.73;;
55537;SDS011;41383;51.418;7.286;2023-07-02T04:19:57;20.45;;;11.30;;
55537;SDS011;41383;51.418;7.286;2023-07-02T04:22:22;22.88;;;11.48;;
55537;SDS011;41383;51.418;7.286;2023-07-02T04:24:47;19.10;;;8.52;;
55537;SDS011;41383;51.418;7.286;2023-07-02T04:27:14;20.70;;;10.10;;
55537;SDS011;41383;51.418;7.286;2023-07-02T04:29:42;22.63;;;9.75;;
55537;SDS011;41383;51.418;7.286;2023-07-02T04:32:07;21.25;;;9.85;;
55537;SDS011;41383;51.418;7.286;2023-07-02T04:34:33;26.67;;;9.20;;
55537;SDS011;41383;51.418;7.286;2023-07-02T04:36:58;19.48;;;10.68;;
55537;SDS011;41383;51.418;7.286;2023-07-02T04:39:24;27.33;;;12.63;;
55537;SDS011;41383;51.418;7.286;2023-07-02T04:41:49;18.63;;;10.05;;
55537;SDS011;41383;51.418;7.286;2023-07-02T04:44:17;25.73;;;10.38;;
55537;SDS011;41383;51.418;7.286;2023-07-02T04:46:42;24.02;;;12.70;;
55537;SDS011;41383;51.418;7.286;2023-07-02T04:49:08;18.90;;;8.13;;
55537;SDS011;41383;51.418;7.286;2023-07-02T04:51:33;31.40;;;10.47;;
55537;SDS011;41383;51.418;7.286;2023-07-02T04:53:58;22.05;;;9.60;;
55537;SDS011;41383;51.418;7.286;2023-07-02T04:56:23;23.17;;;9.83;;
55537;SDS011;41383;51.418;7.286;2023-07-02T04:58:49;25.50;;;11.30;;
55537;SDS011;41383;51.418;7.286;2023-07-02T05:01:14;20.83;;;9.73;;
55537;SDS011;41383;51.418;7.286;2023-07-02T05:03:39;23.33;;;9.53;;
55537;SDS011;41383;51.418;7.286;2023-07-02T05:06:05;22.05;;;11.60;;
55537;SDS011;41383;51.418;7.286;2023-07-02T05:08:30;22.05;;;12.52;;
55537;SDS011;41383;51.418;7.286;2023-07-02T05:10:55;31.25;;;12.52;;
55537;SDS011;41383;51.418;7.286;2023-07-02T05:13:20;25.50;;;11.83;;
55537;SDS011;41383;51.418;7.286;2023-07-02T05:15:46;27.90;;;10.85;;
55537;SDS011;41383;51.418;7.286;2023-07-02T05:18:11;26.63;;;12.02;;
55537;SDS011;41383;51.418;7.286;2023-07-02T05:20:37;25.65;;;9.70;;
55537;SDS011;41383;51.418;7.286;2023-07-02T05:23:02;26.80;;;12.87;;
55537;SDS011;41383;51.418;7.286;2023-07-02T05:25:28;33.17;;;13.17;;
55537;SDS011;41383;51.418;7.286;2023-07-02T05:27:53;25.17;;;12.20;;
55537;SDS011;41383;51.418;7.286;2023-07-02T05:30:18;24.63;;;11.83;;
55537;SDS011;41383;51.418;7.286;2023-07-02T05:32:43;26.70;;;11.93;;
55537;SDS011;41383;51.418;7.286;2023-07-02T05:35:09;25.83;;;12.52;;
55537;SDS011;41383;51.418;7.286;2023-07-02T05:37:34;42.20;;;13.40;;
55537;SDS011;41383;51.418;7.286;2023-07-02T05:39:59;26.85;;;13.02;;
55537;SDS011;41383;51.418;7.286;2023-07-02T05:42:25;28.33;;;13.80;;
55537;SDS011;41383;51.418;7.286;2023-07-02T05:44:50;23.20;;;11.47;;
55537;SDS011;41383;51.418;7.286;2023-07-02T05:47:15;25.63;;;11.90;;
55537;SDS011;41383;51.418;7.286;2023-07-02T05:49:41;31.20;;;14.70;;
55537;SDS011;41383;51.418;7.286;2023-07-02T05:52:07;27.00;;;11.90;;
55537;SDS011;41383;51.418;7.286;2023-07-02T05:54:32;26.88;;;10.95;;
55537;SDS011;41383;51.418;7.286;2023-07-02T05:56:58;29.80;;;14.48;;
55537;SDS011;41383;51.418;7.286;2023-07-02T05:59:23;26.37;;;12.77;;
55537;SDS011;41383;51.418;7.286;2023-07-02T06:01:48;27.13;;;12.97;;
55537;SDS011;41383;51.418;7.286;2023-07-02T06:04:14;29.50;;;12.27;;
55537;SDS011;41383;51.418;7.286;2023-07-02T06:06:39;25.05;;;13.02;;
55537;SDS011;41383;51.418;7.286;2023-07-02T06:09:04;23.88;;;12.68;;
55537;SDS011;41383;51.418;7.286;2023-07-02T06:11:29;19.10;;;11.88;;
55537;SDS011;41383;51.418;7.286;2023-07-02T06:13:55;27.70;;;12.13;;
55537;SDS011;41383;51.418;7.286;2023-07-02T06:16:20;22.13;;;11.07;;
55537;SDS011;41383;51.418;7.286;2023-07-02T06:18:46;22.05;;;12.25;;
55537;SDS011;41383;51.418;7.286;2023-07-02T06:21:11;25.85;;;12.90;;
55537;SDS011;41383;51.418;7.286;2023-07-02T06:23:42;25.20;;;12.00;;
55537;SDS011;41383;51.418;7.286;2023-07-02T06:26:08;28.33;;;12.95;;
55537;SDS011;41383;51.418;7.286;2023-07-02T06:28:34;24.73;;;13.43;;
55537;SDS011;41383;51.418;7.286;2023-07-02T06:30:59;24.73;;;12.17;;
55537;SDS011;41383;51.418;7.286;2023-07-02T06:33:24;29.27;;;13.37;;
55537;SDS011;41383;51.418;7.286;2023-07-02T06:35:49;27.83;;;14.13;;
55537;SDS011;41383;51.418;7.286;2023-07-02T06:38:15;25.60;;;12.85;;
55537;SDS011;41383;51.418;7.286;2023-07-02T06:40:40;27.70;;;11.40;;
55537;SDS011;41383;51.418;7.286;2023-07-02T06:43:05;23.57;;;11.00;;
55537;SDS011;41383;51.418;7.286;2023-07-02T06:45:31;27.57;;;11.87;;
55537;SDS011;41383;51.418;7.286;2023-07-02T06:47:56;19.27;;;10.87;;
55537;SDS011;41383;51.418;7.286;2023-07-02T06:50:21;21.50;;;11.60;;
55537;SDS011;41383;51.418;7.286;2023-07-02T06:52:47;27.48;;;11.95;;
55537;SDS011;41383;51.418;7.286;2023-07-02T06:55:13;28.83;;;11.20;;
55537;SDS011;41383;51.418;7.286;2023-07-02T06:57:42;25.23;;;10.13;;
55537;SDS011;41383;51.418;7.286;2023-07-02T07:00:11;24.05;;;12.45;;
55537;SDS011;41383;51.418;7.286;2023-07-02T07:02:39;24.35;;;11.48;;
55537;SDS011;41383;51.418;7.286;2023-07-02T07:05:05;20.35;;;9.50;;
55537;SDS011;41383;51.418;7.286;2023-07-02T07:07:31;20.23;;;10.38;;
55537;SDS011;41383;51.418;7.286;2023-07-02T07:09:57;22.70;;;10.38;;
55537;SDS011;41383;51.418;7.286;2023-07-02T07:12:22;26.53;;;11.27;;
55537;SDS011;41383;51.418;7.286;2023-07-02T07:14:47;25.43;;;10.90;;
55537;SDS011;41383;51.418;7.286;2023-07-02T07:17:13;25.50;;;9.40;;
55537;SDS011;41383;51.418;7.286;2023-07-02T07:19:38;21.13;;;10.27;;
55537;SDS011;41383;51.418;7.286;2023-07-02T07:22:03;27.40;;;10.77;;
55537;SDS011;41383;51.418;7.286;2023-07-02T07:24:28;19.83;;;8.13;;
55537;SDS011;41383;51.418;7.286;2023-07-02T07:26:54;33.50;;;9.90;;
55537;SDS011;41383;51.418;7.286;2023-07-02T07:29:19;23.70;;;11.13;;
55537;SDS011;41383;51.418;7.286;2023-07-02T07:31:44;24.43;;;11.27;;
55537;SDS011;41383;51.418;7.286;2023-07-02T07:34:11;22.60;;;10.38;;
55537;SDS011;41383;51.418;7.286;2023-07-02T07:36:36;22.63;;;8.93;;
55537;SDS011;41383;51.418;7.286;2023-07-02T07:39:02;24.08;;;10.88;;
55537;SDS011;41383;51.418;7.286;2023-07-02T07:41:27;20.70;;;7.95;;
55537;SDS011;41383;51.418;7.286;2023-07-02T07:43:53;22.30;;;9.87;;
55537;SDS011;41383;51.418;7.286;2023-07-02T07:46:18;18.50;;;10.37;;
55537;SDS011;41383;51.418;7.286;2023-07-02T07:48:44;19.00;;;8.55;;
55537;SDS011;41383;51.418;7.286;2023-07-02T07:51:09;28.10;;;10.47;;
55537;SDS011;41383;51.418;7.286;2023-07-02T07:53:37;25.77;;;10.40;;
55537;SDS011;41383;51.418;7.286;2023-07-02T07:56:03;20.95;;;10.82;;
55537;SDS011;41383;51.418;7.286;2023-07-02T07:58:29;20.77;;;10.23;;
55537;SDS011;41383;51.418;7.286;2023-07-02T08:00:54;20.20;;;9.18;;
55537;SDS011;41383;51.418;7.286;2023-07-02T08:03:20;25.23;;;8.10;;
55537;SDS011;41383;51.418;7.286;2023-07-02T08:05:45;27.80;;;11.07;;
55537;SDS011;41383;51.418;7.286;2023-07-02T08:08:10;26.00;;;10.03;;
55537;SDS011;41383;51.418;7.286;2023-07-02T08:10:35;21.90;;;10.37;;
55537;SDS011;41383;51.418;7.286;2023-07-02T08:13:00;23.13;;;9.97;;
55537;SDS011;41383;51.418;7.286;2023-07-02T08:15:26;18.95;;;8.65;;
55537;SDS011;41383;51.418;7.286;2023-07-02T08:17:51;22.63;;;9.43;;
55537;SDS011;41383;51.418;7.286;2023-07-02T08:20:19;26.95;;;7.90;;
55537;SDS011;41383;51.418;7.286;2023-07-02T08:22:44;24.07;;;9.57;;
55537;SDS011;41383;51.418;7.286;2023-07-02T08:25:09;23.57;;;9.53;;
55537;SDS011;41383;51.418;7.286;2023-07-02T08:27:35;24.63;;;10.13;;
55537;SDS011;41383;51.418;7.286;2023-07-02T08:30:00;32.15;;;10.77;;
55537;SDS011;41383;51.418;7.286;2023-07-02T08:32:25;19.35;;;9.50;;
55537;SDS011;41383;51.418;7.286;2023-07-02T08:34:51;21.10;;;9.75;;
55537;SDS011;41383;51.418;7.286;2023-07-02T08:37:20;20.40;;;8.88;;
55537;SDS011;41383;51.418;7.286;2023-07-02T08:39:45;26.95;;;10.20;;
55537;SDS011;41383;51.418;7.286;2023-07-02T08:42:11;21.35;;;10.15;;
55537;SDS011;41383;51.418;7.286;2023-07-02T08:44:36;18.00;;;9.83;;
55537;SDS011;41383;51.418;7.286;2023-07-02T08:47:01;19.58;;;8.73;;
55537;SDS011;41383;51.418;7.286;2023-07-02T08:49:27;16.65;;;7.43;;
55537;SDS011;41383;51.418;7.286;2023-07-02T08:51:52;25.17;;;9.38;;
55537;SDS011;41383;51.418;7.286;2023-07-02T08:54:18;19.20;;;8.93;;
55537;SDS011;41383;51.418;7.286;2023-07-02T08:56:43;17.23;;;7.93;;
55537;SDS011;41383;51.418;7.286;2023-07-02T08:59:09;18.10;;;8.52;;
55537;SDS011;41383;51.418;7.286;2023-07-02T09:01:48;21.03;;;8.73;;
55537;SDS011;41383;51.418;7.286;2023-07-02T09:04:14;27.83;;;9.70;;
55537;SDS011;41383;51.418;7.286;2023-07-02T09:06:41;19.52;;;7.25;;
55537;SDS011;41383;51.418;7.286;2023-07-02T09:09:06;19.17;;;7.93;;
55537;SDS011;41383;51.418;7.286;2023-07-02T09:11:32;21.13;;;7.70;;
55537;SDS011;41383;51.418;7.286;2023-07-02T09:13:58;16.15;;;6.72;;
55537;SDS011;41383;51.418;7.286;2023-07-02T09:16:27;17.20;;;7.80;;
55537;SDS011;41383;51.418;7.286;2023-07-02T09:18:57;19.60;;;7.45;;
55537;SDS011;41383;51.418;7.286;2023-07-02T09:21:25;45.60;;;10.80;;
55537;SDS011;41383;51.418;7.286;2023-07-02T09:23:51;21.17;;;9.13;;
55537;SDS011;41383;51.418;7.286;2023-07-02T09:26:23;17.40;;;7.43;;
55537;SDS011;41383;51.418;7.286;2023-07-02T09:28:48;17.10;;;7.05;;
55537;SDS011;41383;51.418;7.286;2023-07-02T09:31:13;16.27;;;7.40;;
55537;SDS011;41383;51.418;7.286;2023-07-02T09:33:39;18.30;;;7.10;;
55537;SDS011;41383;51.418;7.286;2023-07-02T09:36:04;17.13;;;8.02;;
55537;SDS011;41383;51.418;7.286;2023-07-02T09:38:30;15.63;;;5.65;;
55537;SDS011;41383;51.418;7.286;2023-07-02T09:40:55;15.30;;;7.22;;
55537;SDS011;41383;51.418;7.286;2023-07-02T09:43:21;19.88;;;6.05;;
55537;SDS011;41383;51.418;7.286;2023-07-02T09:45:50;18.08;;;7.68;;
55537;SDS011;41383;51.418;7.286;2023-07-02T09:48:18;16.13;;;6.93;;
55537;SDS011;41383;51.418;7.286;2023-07-02T09:50:49;20.02;;;8.07;;
55537;SDS011;41383;51.418;7.286;2023-07-02T09:53:16;14.20;;;6.65;;
55537;SDS011;41383;51.418;7.286;2023-07-02T09:55:42;20.27;;;7.72;;
55537;SDS011;41383;51.418;7.286;2023-07-02T09:58:08;15.43;;;8.02;;
55537;SDS011;41383;51.418;7.286;2023-07-02T10:00:33;16.00;;;7.55;;
55537;SDS011;41383;51.418;7.286;2023-07-02T10:02:59;16.60;;;7.85;;
55537;SDS011;41383;51.418;7.286;2023-07-02T10:05:32;14.85;;;7.45;;
55537;SDS011;41383;51.418;7.286;2023-07-02T10:07:58;22.60;;;8.77;;
55537;SDS011;41383;51.418;7.286;2023-07-02T10:10:37;14.57;;;6.78;;
55537;SDS011;41383;51.418;7.286;2023-07-02T10:13:03;26.67;;;8.77;;
55537;SDS011;41383;51.418;7.286;2023-07-02T10:15:28;23.57;;;8.03;;
55537;SDS011;41383;51.418;7.286;2023-07-02T10:17:55;16.67;;;8.32;;
55537;SDS011;41383;51.418;7.286;2023-07-02T10:20:31;20.58;;;7.65;;
55537;SDS011;41383;51.418;7.286;2023-07-02T10:22:57;15.05;;;7.13;;
55537;SDS011;41383;51.418;7.286;2023-07-02T10:25:26;23.83;;;9.00;;
55537;SDS011;41383;51.418;7.286;2023-07-02T10:27:53;24.88;;;7.88;;
55537;SDS011;41383;51.418;7.286;2023-07-02T10:30:29;21.73;;;7.97;;
55537;SDS011;41383;51.418;7.286;2023-07-02T10:33:06;22.30;;;8.07;;
55537;SDS011;41383;51.418;7.286;2023-07-02T10:35:33;16.17;;;7.90;;
55537;SDS011;41383;51.418;7.286;2023-07-02T10:37:59;16.17;;;7.78;;
55537;SDS011;41383;51.418;7.286;2023-07-02T10:40:24;17.25;;;7.68;;
55537;SDS011;41383;51.418;7.286;2023-07-02T10:42:51;20.30;;;7.28;;
55537;SDS011;41383;51.418;7.286;2023-07-02T10:45:17;19.10;;;8.10;;
55537;SDS011;41383;51.418;7.286;2023-07-02T10:47:43;17.95;;;7.82;;
55537;SDS011;41383;51.418;7.286;2023-07-02T10:50:18;20.30;;;8.45;;
55537;SDS011;41383;51.418;7.286;2023-07-02T10:52:45;17.70;;;7.82;;
55537;SDS011;41383;51.418;7.286;2023-07-02T10:55:18;14.55;;;8.07;;
55537;SDS011;41383;51.418;7.286;2023-07-02T10:57:45;23.05;;;7.18;;
55537;SDS011;41383;51.418;7.286;2023-07-02T11:00:16;17.33;;;8.00;;
55537;SDS011;41383;51.418;7.286;2023-07-02T11:02:41;19.55;;;8.98;;
55537;SDS011;41383;51.418;7.286;2023-07-02T11:05:07;16.57;;;8.93;;
55537;SDS011;41383;51.418;7.286;2023-07-02T11:07:40;34.67;;;11.15;;
55537;SDS011;41383;51.418;7.286;2023-07-02T11:10:06;19.58;;;8.88;;
55537;SDS011;41383;51.418;7.286;2023-07-02T11:12:33;16.23;;;7.97;;
55537;SDS011;41383;51.418;7.286;2023-07-02T11:15:12;29.27;;;8.98;;
55537;SDS011;41383;51.418;7.286;2023-07-02T11:17:39;18.10;;;8.85;;
55537;SDS011;41383;51.418;7.286;2023-07-02T11:20:08;18.73;;;6.47;;
55537;SDS011;41383;51.418;7.286;2023-07-02T11:22:34;34.28;;;8.20;;
55537;SDS011;41383;51.418;7.286;2023-07-02T12:16:05;11.32;;;6.55;;
55537;SDS011;41383;51.418;7.286;2023-07-02T12:18:30;21.37;;;5.67;;
55537;SDS011;41383;51.418;7.286;2023-07-02T12:20:55;25.37;;;7.87;;
55537;SDS011;41383;51.418;7.286;2023-07-02T12:23:20;15.10;;;7.28;;
55537;SDS011;41383;51.418;7.286;2023-07-02T12:25:46;15.05;;;5.68;;
55537;SDS011;41383;51.418;7.286;2023-07-02T12:28:11;13.80;;;5.67;;
55537;SDS011;41383;51.418;7.286;2023-07-02T12:30:36;15.40;;;6.33;;
55537;SDS011;41383;51.418;7.286;2023-07-02T12:33:01;10.07;;;5.30;;
55537;SDS011;41383;51.418;7.286;2023-07-02T12:35:27;11.77;;;5.75;;
55537;SDS011;41383;51.418;7.286;2023-07-02T12:37:52;11.83;;;4.97;;
55537;SDS011;41383;51.418;7.286;2023-07-02T12:40:18;16.23;;;6.60;;
55537;SDS011;41383;51.418;7.286;2023-07-02T12:42:45;13.95;;;5.43;;
55537;SDS011;41383;51.418;7.286;2023-07-02T12:45:11;20.02;;;6.45;;
55537;SDS011;41383;51.418;7.286;2023-07-02T12:47:40;17.95;;;6.63;;
55537;SDS011;41383;51.418;7.286;2023-07-02T12:50:07;14.05;;;5.03;;
55537;SDS011;41383;51.418;7.286;2023-07-02T12:52:33;15.85;;;5.60;;
55537;SDS011;41383;51.418;7.286;2023-07-02T12:54:59;13.38;;;6.05;;
55537;SDS011;41383;51.418;7.286;2023-07-02T12:57:25;17.90;;;6.95;;
55537;SDS011;41383;51.418;7.286;2023-07-02T12:59:51;13.38;;;5.95;;
55537;SDS011;41383;51.418;7.286;2023-07-02T13:02:17;10.93;;;5.28;;
55537;SDS011;41383;51.418;7.286;2023-07-02T13:04:42;18.73;;;6.47;;
55537;SDS011;41383;51.418;7.286;2023-07-02T13:07:08;17.23;;;6.43;;
55537;SDS011;41383;51.418;7.286;2023-07-02T13:09:33;12.87;;;7.10;;
55537;SDS011;41383;51.418;7.286;2023-07-02T13:11:58;18.13;;;6.90;;
55537;SDS011;41383;51.418;7.286;2023-07-02T13:14:23;19.57;;;6.17;;
55537;SDS011;41383;51.418;7.286;2023-07-02T13:16:49;16.03;;;6.70;;
55537;SDS011;41383;51.418;7.286;2023-07-02T13:19:14;12.80;;;6.27;;
55537;SDS011;41383;51.418;7.286;2023-07-02T13:21:40;16.17;;;7.40;;
55537;SDS011;41383;51.418;7.286;2023-07-02T13:24:06;14.80;;;9.15;;
55537;SDS011;41383;51.418;7.286;2023-07-02T13:26:31;13.63;;;7.35;;
55537;SDS011;41383;51.418;7.286;2023-07-02T13:28:57;17.25;;;7.18;;
55537;SDS011;41383;51.418;7.286;2023-07-02T13:31:22;21.80;;;10.68;;
55537;SDS011;41383;51.418;7.286;2023-07-02T13:33:48;16.15;;;8.40;;
55537;SDS011;41383;51.418;7.286;2023-07-02T13:36:14;24.65;;;8.60;;
55537;SDS011;41383;51.418;7.286;2023-07-02T13:38:39;20.97;;;11.43;;
55537;SDS011;41383;51.418;7.286;2023-07-02T13:41:05;60.30;;;56.93;;
55537;SDS011;41383;51.418;7.286;2023-07-02T13:43:30;89.73;;;85.43;;
55537;SDS011;41383;51.418;7.286;2023-07-02T13:45:55;54.27;;;50.57;;
55537;SDS011;41383;51.418;7.286;2023-07-02T13:48:20;45.77;;;43.17;;
55537;SDS011;41383;51.418;7.286;2023-07-02T13:50:46;52.40;;;49.40;;
55537;SDS011;41383;51.418;7.286;2023-07-02T13:53:11;82.10;;;78.25;;
55537;SDS011;41383;51.418;7.286;2023-07-02T13:55:36;137.83;;;130.40;;
55537;SDS011;41383;51.418;7.286;2023-07-02T13:58:01;110.43;;;104.77;;
55537;SDS011;41383;51.418;7.286;2023-07-02T14:00:27;97.07;;;92.38;;
55537;SDS011;41383;51.418;7.286;2023-07-02T14:02:52;157.10;;;150.07;;
55537;SDS011;41383;51.418;7.286;2023-07-02T14:05:18;151.52;;;144.75;;
55537;SDS011;41383;51.418;7.286;2023-07-02T14:07:43;133.40;;;126.93;;
55537;SDS011;41383;51.418;7.286;2023-07-02T14:10:08;172.10;;;164.18;;
55537;SDS011;41383;51.418;7.286;2023-07-02T14:12:35;284.05;;;271.50;;
55537;SDS011;41383;51.418;7.286;2023-07-02T14:15:00;288.73;;;276.47;;
55537;SDS011;41383;51.418;7.286;2023-07-02T14:17:25;252.97;;;241.60;;
55537;SDS011;41383;51.418;7.286;2023-07-02T14:19:50;120.37;;;115.00;;
55537;SDS011;41383;51.418;7.286;2023-07-02T14:22:16;99.63;;;94.73;;
55537;SDS011;41383;51.418;7.286;2023-07-02T14:24:41;97.37;;;92.23;;
55537;SDS011;41383;51.418;7.286;2023-07-02T14:27:06;254.57;;;243.43;;
55537;SDS011;41383;51.418;7.286;2023-07-02T14:29:31;239.47;;;229.03;;
55537;SDS011;41383;51.418;7.286;2023-07-02T14:31:57;149.32;;;142.02;;
55537;SDS011;41383;51.418;7.286;2023-07-02T14:34:22;150.50;;;143.40;;
55537;SDS011;41383;51.418;7.286;2023-07-02T14:36:47;88.60;;;84.50;;
55537;SDS011;41383;51.418;7.286;2023-07-02T14:39:13;206.82;;;197.40;;
55537;SDS011;41383;51.418;7.286;2023-07-02T14:41:38;216.67;;;207.30;;
55537;SDS011;41383;51.418;7.286;2023-07-02T14:44:03;242.73;;;232.02;;
55537;SDS011;41383;51.418;7.286;2023-07-02T14:46:29;204.20;;;194.90;;
55537;SDS011;41383;51.418;7.286;2023-07-02T14:48:55;232.48;;;221.75;;
55537;SDS011;41383;51.418;7.286;2023-07-02T14:51:20;221.32;;;210.65;;
55537;SDS011;41383;51.418;7.286;2023-07-02T14:53:46;236.45;;;225.52;;
55537;SDS011;41383;51.418;7.286;2023-07-02T14:56:11;278.97;;;266.03;;
55537;SDS011;41383;51.418;7.286;2023-07-02T14:58:36;307.70;;;293.53;;
55537;SDS011;41383;51.418;7.286;2023-07-02T15:01:02;407.67;;;388.17;;
55537;SDS011;41383;51.418;7.286;2023-07-02T15:03:27;477.58;;;453.92;;
55537;SDS011;41383;51.418;7.286;2023-07-02T15:05:54;551.58;;;522.90;;
55537;SDS011;41383;51.418;7.286;2023-07-02T15:08:20;480.55;;;455.83;;
55537;SDS011;41383;51.418;7.286;2023-07-02T15:10:47;462.58;;;440.00;;
55537;SDS011;41383;51.418;7.286;2023-07-02T15:13:14;367.00;;;349.90;;